createdAt,value
2019-05-12T00:00:40.681Z,6.80
2019-05-12T00:03:12.760Z,6.80
2019-05-12T00:05:42.271Z,6.80
2019-05-12T00:08:11.748Z,6.70
2019-05-12T00:10:41.339Z,6.70
2019-05-12T00:13:10.793Z,6.60
2019-05-12T00:15:40.235Z,6.70
2019-05-12T00:18:09.669Z,6.70
2019-05-12T00:20:40.640Z,6.70
2019-05-12T00:23:23.904Z,6.60
2019-05-12T00:25:41.223Z,6.60
2019-05-12T00:28:10.636Z,6.60
2019-05-12T00:30:42.371Z,6.50
2019-05-12T00:33:11.903Z,6.50
2019-05-12T00:35:41.408Z,6.50
2019-05-12T00:38:10.828Z,6.50
2019-05-12T00:40:40.296Z,6.40
2019-05-12T00:43:10.850Z,6.40
2019-05-12T00:45:40.852Z,6.40
2019-05-12T00:48:10.407Z,6.40
2019-05-12T00:50:41.381Z,6.40
2019-05-12T00:53:10.829Z,6.40
2019-05-12T00:55:40.286Z,6.40
2019-05-12T00:58:09.985Z,6.40
2019-05-12T01:00:41.129Z,6.40
2019-05-12T01:03:10.860Z,6.40
2019-05-12T01:05:40.305Z,6.40
2019-05-12T01:08:09.896Z,6.30
2019-05-12T01:10:39.673Z,6.30
2019-05-12T01:13:09.298Z,6.30
2019-05-12T01:15:39.104Z,6.20
2019-05-12T01:18:09.583Z,6.20
2019-05-12T01:20:39.418Z,6.20
2019-05-12T01:23:09.209Z,6.20
2019-05-12T01:25:39.763Z,6.20
2019-05-12T01:28:09.702Z,6.30
2019-05-12T01:30:39.527Z,6.20
2019-05-12T01:33:09.334Z,6.20
2019-05-12T01:35:39.362Z,6.20
2019-05-12T01:38:08.807Z,6.20
2019-05-12T01:40:39.946Z,6.30
2019-05-12T01:43:09.539Z,6.20
2019-05-12T01:45:38.960Z,6.20
2019-05-12T01:48:09.428Z,6.20
2019-05-12T01:50:39.388Z,6.20
2019-05-12T01:53:09.030Z,6.10
2019-05-12T01:55:39.261Z,6.10
2019-05-12T01:58:09.418Z,6.10
2019-05-12T02:00:39.448Z,6.10
2019-05-12T02:03:09.663Z,6.00
2019-05-12T02:05:41.110Z,6.00
2019-05-12T02:08:12.214Z,5.90
2019-05-12T02:10:41.660Z,5.90
2019-05-12T02:13:11.090Z,5.90
2019-05-12T02:15:40.596Z,5.80
2019-05-12T02:18:10.046Z,5.80
2019-05-12T02:20:39.481Z,5.80
2019-05-12T02:23:09.274Z,5.80
2019-05-12T02:25:39.010Z,5.70
2019-05-12T02:28:09.655Z,5.70
2019-05-12T02:30:41.726Z,5.70
2019-05-12T02:33:10.346Z,5.70
2019-05-12T02:35:39.792Z,5.60
2019-05-12T02:38:09.241Z,5.70
2019-05-12T02:40:38.673Z,5.60
2019-05-12T02:43:08.098Z,5.60
2019-05-12T02:45:37.523Z,5.60
2019-05-12T02:50:45.185Z,5.60
2019-05-12T02:53:14.945Z,5.60
2019-05-12T02:55:45.736Z,5.70
2019-05-12T02:58:17.433Z,5.70
2019-05-12T03:00:47.051Z,5.70
2019-05-12T03:03:19.655Z,5.70
2019-05-12T03:05:54.686Z,5.60
2019-05-12T03:08:25.850Z,5.60
2019-05-12T03:10:55.562Z,5.60
2019-05-12T03:13:25.523Z,5.60
2019-05-12T03:15:55.157Z,5.60
2019-05-12T03:18:25.497Z,5.60
2019-05-12T03:20:55.003Z,5.60
2019-05-12T03:23:24.933Z,5.70
2019-05-12T03:25:54.841Z,5.70
2019-05-12T03:28:25.519Z,5.70
2019-05-12T03:30:57.805Z,5.80
2019-05-12T03:33:34.230Z,5.80
2019-05-12T03:36:00.807Z,6.00
2019-05-12T03:38:28.923Z,6.10
2019-05-12T03:40:58.642Z,6.10
2019-05-12T03:43:28.057Z,6.20
2019-05-12T03:45:57.491Z,6.20
2019-05-12T03:48:26.925Z,6.20
2019-05-12T03:50:56.393Z,6.20
2019-05-12T03:53:25.819Z,6.30
2019-05-12T03:55:55.467Z,6.40
2019-05-12T03:58:25.728Z,6.40
2019-05-12T04:00:55.445Z,6.50
2019-05-12T04:03:25.036Z,6.50
2019-05-12T04:05:55.391Z,6.50
2019-05-12T04:08:28.958Z,6.50
2019-05-12T04:10:58.401Z,6.50
2019-05-12T04:13:27.824Z,6.50
2019-05-12T04:15:57.300Z,6.50
2019-05-12T04:18:26.740Z,6.60
2019-05-12T04:20:56.235Z,6.50
2019-05-12T04:23:25.730Z,6.50
2019-05-12T04:26:07.439Z,6.50
2019-05-12T04:28:26.594Z,6.50
2019-05-12T04:30:56.026Z,6.50
2019-05-12T04:33:25.904Z,6.50
2019-05-12T04:35:55.683Z,6.50
2019-05-12T04:38:25.212Z,6.40
2019-05-12T04:40:55.664Z,6.40
2019-05-12T04:43:25.622Z,6.40
2019-05-12T04:45:55.221Z,6.40
2019-05-12T04:48:25.686Z,6.40
2019-05-12T04:50:55.633Z,6.40
2019-05-12T04:53:25.408Z,6.40
2019-05-12T04:56:07.482Z,6.50
2019-05-12T04:58:26.187Z,6.50
2019-05-12T05:00:55.656Z,6.60
2019-05-12T05:03:25.069Z,6.70
2019-05-12T05:05:55.737Z,6.80
2019-05-12T05:08:25.230Z,6.80
2019-05-12T05:10:54.968Z,6.90
2019-05-12T05:13:25.620Z,7.00
2019-05-12T05:15:55.141Z,7.10
2019-05-12T05:18:24.657Z,7.30
2019-05-12T05:20:54.293Z,7.30
2019-05-12T05:23:24.148Z,7.50
2019-05-12T05:25:53.940Z,7.70
2019-05-12T05:28:23.698Z,7.90
2019-05-12T05:30:56.232Z,8.30
2019-05-12T05:33:25.691Z,9.20
2019-05-12T05:35:55.156Z,10.70
2019-05-12T05:38:24.629Z,11.90
2019-05-12T05:40:59.776Z,12.30
2019-05-12T05:43:27.188Z,12.20
2019-05-12T05:46:02.665Z,11.90
2019-05-12T05:48:27.812Z,12.60
2019-05-12T05:51:00.030Z,13.80
2019-05-12T05:53:28.488Z,14.90
2019-05-12T05:56:00.178Z,14.90
2019-05-12T05:58:29.107Z,14.30
2019-05-12T06:01:03.931Z,14.00
2019-05-12T06:03:29.712Z,13.80
2019-05-12T06:06:01.464Z,13.70
2019-05-12T06:08:30.339Z,13.60
2019-05-12T06:10:59.778Z,13.20
2019-05-12T06:13:31.816Z,13.00
2019-05-12T06:16:00.400Z,12.80
2019-05-12T06:18:29.848Z,12.70
2019-05-12T06:20:59.355Z,12.70
2019-05-12T06:23:33.627Z,12.50
2019-05-12T06:26:00.413Z,12.10
2019-05-12T06:28:31.031Z,11.90
2019-05-12T06:31:01.038Z,12.00
2019-05-12T06:33:31.593Z,12.20
2019-05-12T06:36:03.781Z,12.20
2019-05-12T06:38:38.755Z,12.00
2019-05-12T06:41:04.404Z,11.90
2019-05-12T06:43:38.248Z,11.90
2019-05-12T06:46:05.258Z,11.90
2019-05-12T06:48:34.709Z,11.70
2019-05-12T06:51:04.223Z,11.70
2019-05-12T06:53:33.790Z,11.60
2019-05-12T06:56:04.481Z,11.50
2019-05-12T06:58:34.537Z,11.60
2019-05-12T07:01:10.274Z,11.70
2019-05-12T07:03:37.269Z,11.70
2019-05-12T07:06:09.147Z,11.80
2019-05-12T07:08:38.562Z,11.80
2019-05-12T07:11:08.097Z,11.90
2019-05-12T07:13:37.532Z,12.30
2019-05-12T07:16:10.128Z,13.20
2019-05-12T07:18:39.817Z,14.50
2019-05-12T07:21:14.362Z,16.50
2019-05-12T07:23:40.657Z,18.00
2019-05-12T07:26:14.060Z,20.00
2019-05-12T07:28:43.242Z,22.30
2019-05-12T07:31:14.228Z,22.20
2019-05-12T07:33:45.824Z,20.20
2019-05-12T07:36:16.353Z,18.00
2019-05-12T07:38:47.431Z,16.40
2019-05-12T07:41:16.962Z,15.10
2019-05-12T07:43:50.443Z,14.50
2019-05-12T07:46:18.714Z,14.20
2019-05-12T07:48:50.781Z,13.80
2019-05-12T07:51:19.362Z,13.20
2019-05-12T07:53:57.167Z,12.50
2019-05-12T07:56:27.616Z,11.80
2019-05-12T07:58:56.502Z,11.30
2019-05-12T08:01:23.604Z,11.10
2019-05-12T08:03:59.405Z,10.90
2019-05-12T08:06:24.501Z,11.00
2019-05-12T08:08:58.220Z,11.20
2019-05-12T08:11:28.783Z,11.80
2019-05-12T08:13:56.420Z,12.50
2019-05-12T08:16:29.662Z,13.00
2019-05-12T08:18:57.030Z,13.50
2019-05-12T08:21:26.500Z,13.60
2019-05-12T08:23:55.933Z,13.50
2019-05-12T08:26:25.375Z,13.30
2019-05-12T08:28:54.845Z,13.20
2019-05-12T08:31:32.056Z,13.20
2019-05-12T08:33:55.455Z,13.30
2019-05-12T08:36:24.908Z,14.10
2019-05-12T08:38:54.361Z,15.80
2019-05-12T08:41:23.816Z,17.20
2019-05-12T08:43:58.165Z,18.60
2019-05-12T08:46:24.548Z,18.30
2019-05-12T08:49:00.028Z,17.00
2019-05-12T08:51:25.248Z,16.40
2019-05-12T08:54:02.487Z,16.90
2019-05-12T08:56:26.301Z,18.60
2019-05-12T08:58:55.902Z,20.30
2019-05-12T09:01:29.300Z,18.80
2019-05-12T09:04:00.487Z,17.10
2019-05-12T09:06:27.933Z,16.70
2019-05-12T09:08:57.466Z,16.90
2019-05-12T09:11:26.895Z,16.90
2019-05-12T09:14:00.436Z,17.00
2019-05-12T09:16:27.538Z,16.80
2019-05-12T09:18:57.004Z,16.60
2019-05-12T09:21:31.597Z,16.40
2019-05-12T09:23:57.629Z,15.90
2019-05-12T09:26:28.702Z,15.50
2019-05-12T09:28:58.300Z,15.30
2019-05-12T09:31:29.419Z,15.30
2019-05-12T09:34:05.502Z,15.00
2019-05-12T09:36:30.159Z,15.00
2019-05-12T09:39:01.510Z,14.80
2019-05-12T09:41:35.931Z,14.90
2019-05-12T09:44:04.393Z,15.20
2019-05-12T09:46:37.312Z,15.10
2019-05-12T09:49:04.339Z,15.00
2019-05-12T09:51:41.239Z,14.90
2019-05-12T09:54:05.357Z,14.90
2019-05-12T09:56:34.861Z,15.00
2019-05-12T09:59:17.093Z,15.00
2019-05-12T10:01:39.421Z,14.90
2019-05-12T10:04:10.397Z,14.90
2019-05-12T10:06:37.815Z,14.90
2019-05-12T10:09:08.903Z,14.90
2019-05-12T10:11:38.842Z,15.00
2019-05-12T10:14:10.857Z,15.00
2019-05-12T10:16:44.791Z,14.90
2019-05-12T10:19:10.634Z,14.90
2019-05-12T10:21:40.089Z,14.90
2019-05-12T10:24:09.522Z,14.80
2019-05-12T10:26:41.097Z,14.80
2019-05-12T10:29:17.465Z,15.00
2019-05-12T10:31:41.339Z,15.20
2019-05-12T10:34:14.040Z,15.10
2019-05-12T10:36:49.035Z,15.10
2019-05-12T10:39:16.831Z,15.10
2019-05-12T10:41:47.469Z,15.00
2019-05-12T10:44:19.681Z,15.20
2019-05-12T10:46:50.761Z,15.00
2019-05-12T10:49:20.215Z,15.00
2019-05-12T10:51:49.652Z,15.00
2019-05-12T10:54:19.084Z,15.30
2019-05-12T10:56:48.551Z,15.40
2019-05-12T10:59:30.181Z,15.40
2019-05-12T11:01:53.964Z,15.20
2019-05-12T11:04:35.229Z,15.10
2019-05-12T11:06:54.129Z,15.10
2019-05-12T11:09:27.322Z,15.30
2019-05-12T11:11:54.783Z,15.50
2019-05-12T11:14:26.545Z,15.20
2019-05-12T11:16:57.071Z,15.00
2019-05-12T11:19:26.534Z,15.10
2019-05-12T11:21:56.009Z,15.20
2019-05-12T11:24:25.442Z,15.10
2019-05-12T11:26:54.897Z,15.10
2019-05-12T11:29:24.357Z,15.30
2019-05-12T11:31:54.020Z,15.20
2019-05-12T11:34:23.513Z,15.40
2019-05-12T11:36:54.598Z,15.50
2019-05-12T11:39:24.089Z,15.50
2019-05-12T11:41:55.410Z,15.60
2019-05-12T11:44:25.007Z,15.40
2019-05-12T11:46:54.837Z,15.60
2019-05-12T11:49:26.416Z,15.50
2019-05-12T11:51:55.678Z,15.30
2019-05-12T11:54:27.924Z,15.20
2019-05-12T11:56:56.357Z,15.10
2019-05-12T11:59:25.790Z,15.10
2019-05-12T12:01:56.138Z,15.30
2019-05-12T12:04:27.300Z,15.10
2019-05-12T12:06:56.762Z,15.10
2019-05-12T12:09:26.220Z,15.30
2019-05-12T12:12:02.257Z,15.20
2019-05-12T12:14:26.835Z,14.90
2019-05-12T12:16:56.264Z,14.50
2019-05-12T12:19:34.177Z,14.60
2019-05-12T12:21:56.902Z,14.80
2019-05-12T12:24:31.156Z,15.20
2019-05-12T12:26:57.533Z,15.30
2019-05-12T12:29:26.964Z,15.50
2019-05-12T12:31:57.104Z,15.70
2019-05-12T12:34:30.154Z,15.60
2019-05-12T12:36:57.708Z,15.70
2019-05-12T12:39:27.148Z,15.60
2019-05-12T12:42:00.470Z,15.40
2019-05-12T12:44:28.003Z,15.20
2019-05-12T12:47:00.432Z,15.30
2019-05-12T12:49:29.452Z,15.00
2019-05-12T12:51:59.032Z,14.90
2019-05-12T12:54:33.267Z,14.80
2019-05-12T12:57:06.614Z,14.80
2019-05-12T12:59:33.786Z,14.90
2019-05-12T13:02:05.797Z,14.80
2019-05-12T13:04:39.687Z,14.70
2019-05-12T13:07:05.573Z,14.70
2019-05-12T13:09:35.014Z,15.00
2019-05-12T13:14:45.292Z,15.10
2019-05-12T13:17:16.353Z,14.90
2019-05-12T13:19:48.998Z,14.80
2019-05-12T13:22:19.139Z,14.50
2019-05-12T13:24:48.184Z,14.70
2019-05-12T13:27:19.066Z,14.80
2019-05-12T13:29:49.166Z,14.70
2019-05-12T13:32:25.938Z,14.60
2019-05-12T13:34:51.997Z,14.50
2019-05-12T13:37:25.236Z,14.60
2019-05-12T13:39:56.881Z,14.80
2019-05-12T13:42:30.508Z,14.60
2019-05-12T13:44:57.017Z,14.40
2019-05-12T13:47:35.463Z,14.10
2019-05-12T13:50:03.911Z,14.00
2019-05-12T13:52:33.352Z,13.80
2019-05-12T13:55:05.540Z,13.90
2019-05-12T13:57:34.290Z,13.90
2019-05-12T14:00:10.626Z,14.20
2019-05-12T14:02:37.616Z,14.50
2019-05-12T14:05:11.408Z,14.60
2019-05-12T14:07:39.398Z,14.60
2019-05-12T14:10:09.395Z,14.50
2019-05-12T14:12:38.851Z,14.50
2019-05-12T14:15:09.116Z,14.60
2019-05-12T14:17:40.523Z,14.40
2019-05-12T14:20:15.814Z,14.20
2019-05-12T14:22:41.953Z,14.30
2019-05-12T14:25:15.211Z,14.30
2019-05-12T14:27:44.613Z,14.20
2019-05-12T14:30:15.576Z,14.20
2019-05-12T14:32:49.206Z,14.30
2019-05-12T14:35:17.989Z,14.40
2019-05-12T14:37:47.570Z,14.40
2019-05-12T14:40:21.367Z,14.40
2019-05-12T14:42:48.544Z,14.40
2019-05-12T14:45:19.315Z,14.40
2019-05-12T14:47:49.203Z,14.20
2019-05-12T14:50:18.658Z,13.90
2019-05-12T14:52:50.293Z,13.60
2019-05-12T14:55:19.282Z,13.50
2019-05-12T14:57:48.757Z,13.40
2019-05-12T15:00:21.233Z,13.30
2019-05-12T15:02:49.726Z,13.10
2019-05-12T15:05:19.179Z,13.10
2019-05-12T15:07:56.777Z,13.30
2019-05-12T15:10:19.965Z,13.30
2019-05-12T15:12:49.500Z,13.30
2019-05-12T15:15:20.710Z,13.40
2019-05-12T15:17:55.036Z,13.30
2019-05-12T15:20:21.624Z,13.20
2019-05-12T15:22:54.941Z,13.10
2019-05-12T15:25:22.847Z,12.90
2019-05-12T15:27:54.248Z,12.90
2019-05-12T15:30:26.817Z,12.80
2019-05-12T15:32:56.356Z,12.80
2019-05-12T15:35:25.857Z,12.90
2019-05-12T15:37:55.313Z,13.10
2019-05-12T15:40:24.791Z,13.20
2019-05-12T15:42:55.154Z,13.40
2019-05-12T15:45:27.122Z,13.50
2019-05-12T15:47:56.572Z,13.80
2019-05-12T15:50:27.663Z,13.70
2019-05-12T15:52:57.127Z,13.70
2019-05-12T15:55:32.713Z,13.70
2019-05-12T15:57:57.775Z,13.40
2019-05-12T16:00:27.240Z,13.00
2019-05-12T16:02:56.709Z,12.90
2019-05-12T16:05:30.837Z,12.80
2019-05-12T16:07:57.335Z,12.80
2019-05-12T16:10:26.768Z,12.70
2019-05-12T16:12:56.208Z,12.80
2019-05-12T16:15:25.664Z,12.80
2019-05-12T16:17:59.492Z,12.80
2019-05-12T16:20:29.195Z,12.90
2019-05-12T16:22:58.688Z,12.80
2019-05-12T16:25:30.620Z,12.70
2019-05-12T16:27:59.287Z,12.70
2019-05-12T16:30:28.726Z,12.70
2019-05-12T16:32:58.733Z,12.70
2019-05-12T16:35:31.663Z,12.80
2019-05-12T16:37:59.354Z,12.80
2019-05-12T16:40:28.796Z,12.90
2019-05-12T16:42:59.881Z,12.90
2019-05-12T16:45:29.588Z,12.80
2019-05-12T16:48:04.261Z,12.90
2019-05-12T16:50:34.297Z,12.80
2019-05-12T16:53:02.923Z,12.90
2019-05-12T16:55:44.779Z,12.90
2019-05-12T16:58:04.111Z,12.90
2019-05-12T17:00:33.976Z,13.00
2019-05-12T17:03:03.922Z,13.00
2019-05-12T17:05:33.584Z,13.00
2019-05-12T17:08:04.272Z,12.90
2019-05-12T17:10:33.849Z,12.90
2019-05-12T17:13:07.321Z,12.90
2019-05-12T17:15:34.522Z,12.80
2019-05-12T17:18:04.533Z,12.60
2019-05-12T17:20:34.079Z,12.60
2019-05-12T17:23:03.645Z,12.60
2019-05-12T17:25:34.391Z,12.40
2019-05-12T17:28:05.685Z,12.30
2019-05-12T17:30:35.327Z,12.30
2019-05-12T17:33:05.392Z,12.40
2019-05-12T17:35:35.310Z,12.50
2019-05-12T17:38:05.876Z,12.40
2019-05-12T17:40:35.358Z,12.50
2019-05-12T17:43:09.267Z,12.60
2019-05-12T17:45:36.543Z,12.50
2019-05-12T17:48:07.509Z,12.40
2019-05-12T17:50:40.379Z,12.20
2019-05-12T17:53:08.508Z,12.10
2019-05-12T17:55:42.750Z,12.10
2019-05-12T17:58:09.165Z,12.00
2019-05-12T18:00:41.252Z,11.90
2019-05-12T18:03:18.122Z,11.90
2019-05-12T18:05:42.461Z,11.80
2019-05-12T18:08:14.879Z,11.90
2019-05-12T18:10:44.329Z,11.80
2019-05-12T18:13:17.540Z,11.70
2019-05-12T18:15:44.966Z,11.50
2019-05-12T18:18:17.389Z,11.50
2019-05-12T18:20:45.603Z,11.50
2019-05-12T18:23:19.836Z,11.50
2019-05-12T18:25:46.253Z,11.50
2019-05-12T18:28:15.680Z,11.50
2019-05-12T18:30:45.108Z,11.40
2019-05-12T18:33:28.409Z,11.30
2019-05-12T18:35:45.788Z,11.30
2019-05-12T18:38:21.848Z,11.30
2019-05-12T18:40:46.402Z,11.20
2019-05-12T18:43:15.858Z,11.10
2019-05-12T18:45:48.668Z,11.10
2019-05-12T18:48:21.771Z,11.00
2019-05-12T18:50:47.691Z,10.90
2019-05-12T18:53:27.511Z,10.80
2019-05-12T18:55:48.345Z,10.70
2019-05-12T18:58:21.648Z,10.70
2019-05-12T19:00:48.968Z,10.70
2019-05-12T19:03:20.629Z,10.60
2019-05-12T19:05:49.653Z,10.50
2019-05-12T19:08:20.433Z,10.40
2019-05-12T19:10:51.869Z,10.40
2019-05-12T19:13:21.407Z,10.40
2019-05-12T19:15:52.803Z,10.20
2019-05-12T19:18:24.367Z,10.10
2019-05-12T19:20:54.198Z,10.10
2019-05-12T19:23:26.880Z,10.00
2019-05-12T19:25:54.886Z,10.00
2019-05-12T19:28:24.334Z,9.90
2019-05-12T19:30:54.587Z,10.00
2019-05-12T19:33:24.298Z,9.90
2019-05-12T19:35:59.771Z,9.80
2019-05-12T19:38:24.910Z,9.80
2019-05-12T19:40:58.765Z,9.70
2019-05-12T19:43:25.551Z,9.70
2019-05-12T19:46:02.976Z,9.60
2019-05-12T19:48:27.654Z,9.50
2019-05-12T19:50:57.530Z,9.50
2019-05-12T19:53:27.201Z,9.40
2019-05-12T19:55:56.637Z,9.40
2019-05-12T19:58:26.164Z,9.30
2019-05-12T20:00:55.670Z,9.20
2019-05-12T20:03:25.095Z,9.10
2019-05-12T20:05:54.574Z,9.10
2019-05-12T20:08:24.109Z,9.00
2019-05-12T20:10:54.153Z,9.00
2019-05-12T20:13:24.240Z,9.00
2019-05-12T20:15:53.822Z,9.00
2019-05-12T20:18:23.752Z,8.90
2019-05-12T20:20:54.312Z,8.90
2019-05-12T20:23:24.637Z,9.00
2019-05-12T20:25:54.142Z,8.90
2019-05-12T20:28:24.340Z,8.90
2019-05-12T20:31:00.973Z,8.90
2019-05-12T20:33:25.077Z,8.80
2019-05-12T20:35:54.846Z,8.70
2019-05-12T20:38:33.736Z,8.70
2019-05-12T20:40:55.615Z,8.70
2019-05-12T20:43:32.568Z,8.70
2019-05-12T20:45:56.610Z,8.70
2019-05-12T20:48:31.004Z,8.60
2019-05-12T20:50:57.280Z,8.60
2019-05-12T20:53:32.030Z,8.60
2019-05-12T20:55:57.949Z,8.50
2019-05-12T20:58:34.139Z,8.40
2019-05-12T21:01:01.931Z,8.30
2019-05-12T21:03:29.969Z,8.20
2019-05-12T21:06:01.574Z,8.20
2019-05-12T21:08:30.906Z,8.20
2019-05-12T21:11:00.410Z,8.20
2019-05-12T21:13:31.935Z,8.20
2019-05-12T21:16:15.887Z,8.20
2019-05-12T21:18:47.101Z,8.10
2019-05-12T21:21:06.335Z,8.10
2019-05-12T21:23:35.970Z,8.10
2019-05-12T21:26:05.384Z,8.10
2019-05-12T21:28:37.024Z,8.10
2019-05-12T21:31:06.039Z,8.00
2019-05-12T21:33:39.939Z,8.00
2019-05-12T21:36:06.652Z,8.00
2019-05-12T21:38:36.116Z,8.00
2019-05-12T21:41:08.095Z,7.90
2019-05-12T21:43:36.736Z,7.90
2019-05-12T21:46:12.410Z,7.90
2019-05-12T21:48:38.983Z,7.80
2019-05-12T21:51:14.987Z,7.80
2019-05-12T21:53:39.581Z,7.70
2019-05-12T21:56:09.026Z,7.60
2019-05-12T21:58:45.399Z,7.60
2019-05-12T22:01:13.599Z,7.60
2019-05-12T22:03:45.939Z,7.50
2019-05-12T22:06:20.752Z,7.50
2019-05-12T22:08:45.422Z,7.50
2019-05-12T22:11:16.729Z,7.60
2019-05-12T22:13:54.886Z,7.60
2019-05-12T22:16:17.657Z,7.50
2019-05-12T22:18:47.837Z,7.50
2019-05-12T22:21:17.476Z,7.50
2019-05-12T22:23:51.286Z,7.50
2019-05-12T22:26:18.081Z,7.50
2019-05-12T22:28:50.873Z,7.40
2019-05-12T22:31:18.723Z,7.40
2019-05-12T22:33:53.417Z,7.40
2019-05-12T22:36:25.649Z,7.40
2019-05-12T22:38:52.060Z,7.30
2019-05-12T22:41:24.056Z,7.40
2019-05-12T22:43:53.815Z,7.30
2019-05-12T22:46:31.143Z,7.30
2019-05-12T22:48:54.514Z,7.30
2019-05-12T22:51:26.806Z,7.30
2019-05-12T22:53:55.103Z,7.30
2019-05-12T22:56:24.538Z,7.20
2019-05-12T22:59:00.184Z,7.20
2019-05-12T23:01:25.208Z,7.20
2019-05-12T23:03:56.062Z,7.20
2019-05-12T23:06:27.637Z,7.20
2019-05-12T23:08:57.259Z,7.20
2019-05-12T23:11:31.854Z,7.20
2019-05-12T23:16:29.400Z,7.10
2019-05-12T23:19:01.252Z,7.10
2019-05-12T23:21:30.127Z,7.00
2019-05-12T23:24:00.698Z,7.00
2019-05-12T23:26:33.264Z,7.10
2019-05-12T23:29:04.061Z,7.10
2019-05-12T23:31:34.081Z,7.00
2019-05-12T23:34:06.514Z,7.00
2019-05-12T23:36:38.355Z,6.90
2019-05-12T23:39:07.601Z,6.90
2019-05-12T23:41:37.063Z,6.90
2019-05-12T23:44:06.495Z,6.90
2019-05-12T23:46:35.928Z,6.90
2019-05-12T23:49:05.452Z,6.90
2019-05-12T23:51:37.639Z,6.90
2019-05-12T23:54:07.057Z,6.80
2019-05-12T23:56:36.507Z,6.80
2019-05-12T23:59:05.953Z,6.80
